Wickham Market, United Kingdom
Current Conditions -  °F | °C
As of 3:50 PM on Thursday 18 Dec 2014 (Local Time) from EGUW Reporting Station
Overcast Overcast  
Wind Chill: 55°   Ceiling: 1500
Heat Index: 55°   Visibility: 6mi
Dew Point: 50°   Wind: 23mph
Humidity: 82%   Direction: 240°WSW
Pressure: 29.71"   Gusts: NA
Location:  52.15°N, 1.36°E
Report Text: EGUW 181550Z 24020KT 9999 OVC015 13/10 Q1006 WHT NOSIG
Loading
Personal Weather Stations






























Interactive Weather Map New forecast layout! Learn more

10-Day Weather Forecast

Advertisements
Track Severe Weather on mobile